createdAt,value
2022-08-03T00:01:01.395Z,44.97
2022-08-03T00:03:29.731Z,44.38
2022-08-03T00:06:04.411Z,44.20
2022-08-03T00:08:33.285Z,45.81
2022-08-03T00:11:08.990Z,46.69
2022-08-03T00:13:37.350Z,46.25
2022-08-03T00:16:05.953Z,46.53
2022-08-03T00:18:34.332Z,47.63
2022-08-03T00:21:03.044Z,47.67
2022-08-03T00:23:51.293Z,47.44
2022-08-03T00:26:46.350Z,47.64
2022-08-03T00:29:30.466Z,47.89
2022-08-03T00:32:01.367Z,47.54
2022-08-03T00:34:57.367Z,47.43
2022-08-03T00:37:40.887Z,47.11
2022-08-03T00:40:32.845Z,47.40
2022-08-03T00:43:03.080Z,47.68
2022-08-03T00:45:34.195Z,47.31
2022-08-03T00:48:03.218Z,47.11
2022-08-03T00:50:35.770Z,47.56
2022-08-03T00:53:06.513Z,47.90
2022-08-03T00:55:34.715Z,47.85
2022-08-03T00:58:10.161Z,48.60
2022-08-03T01:00:43.833Z,48.52
2022-08-03T01:03:31.891Z,49.37
2022-08-03T01:06:14.628Z,49.27
2022-08-03T01:08:49.140Z,49.68
2022-08-03T01:12:00.682Z,49.24
2022-08-03T01:14:38.039Z,49.01
2022-08-03T01:17:35.593Z,49.73
2022-08-03T01:20:09.900Z,49.91
2022-08-03T01:23:01.796Z,49.63
2022-08-03T01:25:35.579Z,48.95
2022-08-03T01:28:31.419Z,49.86
2022-08-03T01:32:57.983Z,49.49
2022-08-03T01:35:08.641Z,49.27
2022-08-03T01:37:41.872Z,49.67
2022-08-03T01:40:26.396Z,50.46
2022-08-03T01:44:28.398Z,50.05
2022-08-03T01:46:05.924Z,49.18
2022-08-03T01:48:35.730Z,49.21
2022-08-03T01:51:04.846Z,50.61
2022-08-03T01:53:37.253Z,50.35
2022-08-03T01:56:09.674Z,50.24
2022-08-03T01:58:40.469Z,49.58
2022-08-03T02:01:10.602Z,50.47
2022-08-03T02:03:59.599Z,50.57
2022-08-03T02:07:00.668Z,49.91
2022-08-03T02:10:04.953Z,50.42
2022-08-03T02:12:53.757Z,50.80
2022-08-03T02:15:27.269Z,51.28
2022-08-03T02:17:57.524Z,50.53
2022-08-03T02:20:50.823Z,50.63
2022-08-03T02:26:06.547Z,50.47
2022-08-03T02:28:38.581Z,49.86
2022-08-03T02:31:13.426Z,49.70
2022-08-03T02:33:45.254Z,49.77
2022-08-03T02:36:15.649Z,50.19
2022-08-03T02:38:45.515Z,50.47
2022-08-03T02:41:20.234Z,52.19
2022-08-03T02:44:17.655Z,52.07
2022-08-03T02:46:50.278Z,52.04
2022-08-03T02:49:50.962Z,51.43
2022-08-03T02:52:27.154Z,51.80
2022-08-03T02:55:06.765Z,52.41
2022-08-03T02:57:37.261Z,52.17
2022-08-03T03:00:07.261Z,52.24
2022-08-03T03:02:39.135Z,51.92
2022-08-03T03:05:52.241Z,52.25
2022-08-03T03:08:03.389Z,52.09
2022-08-03T03:10:46.810Z,52.03
2022-08-03T03:13:19.422Z,52.05
2022-08-03T03:15:48.795Z,51.61
2022-08-03T03:18:22.587Z,53.17
2022-08-03T03:20:54.633Z,53.14
2022-08-03T03:23:24.990Z,52.71
2022-08-03T03:25:57.206Z,53.37
2022-08-03T03:28:32.960Z,52.58
2022-08-03T03:31:03.078Z,52.87
2022-08-03T03:33:32.187Z,52.98
2022-08-03T03:36:19.901Z,53.02
2022-08-03T03:38:48.178Z,53.98
2022-08-03T03:41:18.265Z,53.96
2022-08-03T03:43:51.681Z,54.44
2022-08-03T03:46:24.457Z,54.50
2022-08-03T03:48:52.942Z,55.24
2022-08-03T03:51:21.726Z,54.96
2022-08-03T03:54:01.069Z,55.44
2022-08-03T03:56:33.844Z,55.49
2022-08-03T03:59:04.088Z,55.74
2022-08-03T04:01:33.471Z,56.01
2022-08-03T04:04:21.951Z,55.53
2022-08-03T04:07:08.872Z,55.91
2022-08-03T04:09:58.118Z,56.36
2022-08-03T04:12:35.577Z,56.48
2022-08-03T04:15:05.470Z,56.85
2022-08-03T04:17:37.294Z,56.32
2022-08-03T04:20:13.657Z,55.64
2022-08-03T04:22:43.259Z,56.36
2022-08-03T04:28:21.011Z,57.06
2022-08-03T04:30:54.894Z,56.90
2022-08-03T04:33:26.073Z,57.14
2022-08-03T04:36:20.999Z,57.20
2022-08-03T04:39:08.840Z,56.80
2022-08-03T04:42:02.195Z,56.79
2022-08-03T04:44:28.435Z,52.70
2022-08-03T04:46:59.377Z,51.53
2022-08-03T04:49:30.558Z,51.45
2022-08-03T04:51:59.596Z,51.54
2022-08-03T04:54:28.389Z,51.09
2022-08-03T04:56:56.995Z,49.58
2022-08-03T04:59:25.355Z,52.71
2022-08-03T05:01:54.135Z,54.40
2022-08-03T05:04:28.709Z,55.44
2022-08-03T05:06:57.590Z,56.39
2022-08-03T05:09:45.097Z,56.49
2022-08-03T05:12:19.472Z,56.41
2022-08-03T05:14:47.692Z,56.42
2022-08-03T05:17:16.494Z,57.48
2022-08-03T05:19:44.716Z,57.99
2022-08-03T05:22:12.988Z,58.47
2022-08-03T05:24:41.271Z,58.85
2022-08-03T05:27:10.113Z,59.27
2022-08-03T05:29:38.635Z,59.11
2022-08-03T05:32:10.200Z,59.46
2022-08-03T05:34:38.937Z,59.67
2022-08-03T05:37:08.342Z,59.70
2022-08-03T05:39:38.945Z,59.37
2022-08-03T05:42:09.645Z,59.42
2022-08-03T05:44:39.630Z,59.59
2022-08-03T05:47:07.887Z,59.38
2022-08-03T05:49:36.638Z,58.55
2022-08-03T05:52:13.796Z,58.27
2022-08-03T05:54:55.932Z,58.86
2022-08-03T05:57:27.640Z,59.49
2022-08-03T05:59:58.607Z,59.11
2022-08-03T06:02:30.002Z,59.33
2022-08-03T06:05:00.478Z,59.63
2022-08-03T06:07:29.364Z,59.89
2022-08-03T06:10:35.775Z,60.62
2022-08-03T06:12:48.678Z,60.84
2022-08-03T06:15:17.848Z,60.95
2022-08-03T06:17:53.244Z,60.72
2022-08-03T06:20:27.287Z,60.71
2022-08-03T06:23:00.398Z,61.16
2022-08-03T06:25:30.148Z,61.42
2022-08-03T06:28:00.847Z,62.23
2022-08-03T06:30:29.505Z,62.39
2022-08-03T06:32:58.078Z,62.25
2022-08-03T06:35:28.772Z,62.41
2022-08-03T06:37:58.013Z,62.37
2022-08-03T06:40:35.532Z,62.75
2022-08-03T06:43:06.115Z,63.09
2022-08-03T06:45:40.238Z,63.23
2022-08-03T06:48:10.853Z,63.65
2022-08-03T06:50:42.615Z,64.24
2022-08-03T06:53:21.291Z,64.42
2022-08-03T06:55:54.924Z,64.45
2022-08-03T06:58:24.287Z,64.43
2022-08-03T07:00:52.585Z,64.54
2022-08-03T07:03:21.525Z,64.91
2022-08-03T07:05:51.023Z,64.62
2022-08-03T07:08:20.036Z,64.60
2022-08-03T07:11:02.873Z,64.68
2022-08-03T07:13:33.116Z,64.64
2022-08-03T07:16:01.695Z,64.73
2022-08-03T07:18:30.512Z,64.54
2022-08-03T07:21:00.814Z,65.01
2022-08-03T07:23:29.454Z,64.81
2022-08-03T07:25:57.854Z,65.05
2022-08-03T07:28:26.738Z,65.16
2022-08-03T07:30:54.952Z,65.57
2022-08-03T07:33:24.055Z,65.88
2022-08-03T07:35:52.262Z,65.85
2022-08-03T07:38:21.198Z,65.87
2022-08-03T07:40:50.133Z,65.71
2022-08-03T07:43:18.556Z,65.90
2022-08-03T07:45:46.768Z,66.14
2022-08-03T07:48:15.035Z,66.21
2022-08-03T07:50:43.302Z,66.55
2022-08-03T07:53:11.602Z,66.21
2022-08-03T07:55:43.000Z,65.98
2022-08-03T07:58:19.207Z,66.01
2022-08-03T08:00:51.901Z,66.36
2022-08-03T08:03:20.729Z,66.01
2022-08-03T08:05:49.525Z,66.15
2022-08-03T08:08:17.939Z,66.45
2022-08-03T08:10:58.534Z,66.74
2022-08-03T08:13:27.620Z,66.69
2022-08-03T08:15:55.814Z,66.44
2022-08-03T08:18:25.061Z,66.78
2022-08-03T08:20:53.556Z,66.55
2022-08-03T08:23:44.187Z,66.75
2022-08-03T08:26:13.912Z,66.97
2022-08-03T08:28:45.419Z,66.69
2022-08-03T08:31:13.640Z,67.09
2022-08-03T08:34:03.298Z,67.39
2022-08-03T08:36:30.569Z,67.81
2022-08-03T08:38:58.819Z,68.29
2022-08-03T08:41:32.164Z,67.80
2022-08-03T08:44:01.229Z,68.37
2022-08-03T08:46:33.968Z,68.02
2022-08-03T08:49:04.810Z,68.23
2022-08-03T08:51:50.563Z,68.71
2022-08-03T08:54:29.257Z,68.75
2022-08-03T08:57:03.161Z,68.94
2022-08-03T08:59:48.346Z,69.62
2022-08-03T09:02:18.123Z,69.59
2022-08-03T09:04:50.412Z,70.24
2022-08-03T09:07:20.368Z,70.18
2022-08-03T09:10:10.188Z,70.33
2022-08-03T09:12:42.583Z,70.44
2022-08-03T09:15:26.501Z,70.51
2022-08-03T09:17:57.556Z,70.05
2022-08-03T09:20:28.002Z,69.96
2022-08-03T09:23:51.606Z,69.21
2022-08-03T09:26:02.575Z,69.25
2022-08-03T09:28:56.577Z,69.55
2022-08-03T09:32:00.364Z,69.86
2022-08-03T09:34:32.018Z,70.70
2022-08-03T09:37:00.338Z,70.34
2022-08-03T09:39:42.204Z,70.38
2022-08-03T09:42:23.563Z,69.88
2022-08-03T09:44:53.484Z,69.89
2022-08-03T09:47:37.383Z,69.70
2022-08-03T09:50:13.868Z,69.69
2022-08-03T09:52:49.792Z,70.12
2022-08-03T09:56:34.218Z,69.98
2022-08-03T09:58:13.595Z,69.92
2022-08-03T10:01:00.663Z,69.99
2022-08-03T10:03:31.966Z,70.17
2022-08-03T10:06:00.540Z,69.78
2022-08-03T10:08:29.443Z,69.84
2022-08-03T10:10:59.647Z,69.60
2022-08-03T10:13:29.014Z,69.85
2022-08-03T10:16:23.238Z,70.08
2022-08-03T10:18:46.011Z,70.43
2022-08-03T10:21:18.198Z,70.24
2022-08-03T10:23:48.050Z,70.60
2022-08-03T10:26:23.948Z,70.95
2022-08-03T10:28:57.317Z,70.76
2022-08-03T10:31:26.134Z,71.03
2022-08-03T10:33:58.604Z,71.03
2022-08-03T10:36:31.760Z,71.40
2022-08-03T10:39:01.974Z,71.02
2022-08-03T10:41:37.348Z,71.35
2022-08-03T10:44:12.079Z,72.02
2022-08-03T10:46:44.948Z,71.72
2022-08-03T10:49:25.523Z,71.40
2022-08-03T10:52:13.758Z,71.91
2022-08-03T10:55:12.401Z,71.78
2022-08-03T10:57:58.446Z,71.96
2022-08-03T11:00:31.450Z,71.90
2022-08-03T11:03:09.756Z,71.65
2022-08-03T11:05:53.187Z,71.51
2022-08-03T11:08:25.797Z,71.29
2022-08-03T11:10:57.076Z,71.18
2022-08-03T11:13:29.072Z,71.91
2022-08-03T11:16:02.357Z,72.27
2022-08-03T11:18:36.363Z,72.80
2022-08-03T11:21:05.006Z,72.91
2022-08-03T11:24:04.286Z,72.38
2022-08-03T11:26:35.401Z,72.66
2022-08-03T11:29:30.597Z,72.46
2022-08-03T11:31:58.885Z,72.33
2022-08-03T11:34:27.669Z,72.71
2022-08-03T11:37:32.865Z,73.13
2022-08-03T11:40:02.814Z,72.97
2022-08-03T11:42:37.532Z,73.24
2022-08-03T11:45:09.405Z,73.29
2022-08-03T11:47:51.022Z,73.21
2022-08-03T11:50:20.769Z,73.55
2022-08-03T11:52:50.386Z,73.88
2022-08-03T11:55:22.553Z,74.14
2022-08-03T11:59:10.743Z,73.59
2022-08-03T12:00:40.512Z,73.98
2022-08-03T12:03:12.771Z,73.75
2022-08-03T12:05:51.964Z,73.68
2022-08-03T12:08:34.614Z,74.25
2022-08-03T12:11:07.556Z,74.36
2022-08-03T12:14:27.421Z,73.83
2022-08-03T12:16:49.520Z,73.81
2022-08-03T12:19:18.103Z,74.17
2022-08-03T12:21:57.326Z,73.88
2022-08-03T12:24:29.577Z,73.93
2022-08-03T12:27:00.800Z,74.05
2022-08-03T12:29:29.730Z,74.14
2022-08-03T12:32:18.316Z,74.58
2022-08-03T12:34:48.877Z,74.40
2022-08-03T12:37:23.200Z,74.89
2022-08-03T12:40:02.364Z,75.14
2022-08-03T12:42:36.153Z,75.13
2022-08-03T12:45:24.446Z,75.60
2022-08-03T12:48:02.918Z,75.43
2022-08-03T12:58:17.125Z,77.32
2022-08-03T14:25:49.955Z,79.64
2022-08-03T14:32:08.994Z,78.68
2022-08-03T14:34:20.871Z,77.63
2022-08-03T14:37:10.623Z,77.42
2022-08-03T14:42:30.330Z,76.57
2022-08-03T14:45:02.609Z,75.88
2022-08-03T14:47:34.341Z,76.47
2022-08-03T14:50:38.230Z,76.35
2022-08-03T14:53:09.248Z,76.00
2022-08-03T14:55:38.602Z,76.17
2022-08-03T14:58:20.702Z,76.46
2022-08-03T15:00:51.303Z,76.28
2022-08-03T15:03:25.403Z,76.27
2022-08-03T15:06:00.931Z,76.51
2022-08-03T15:08:29.794Z,76.97
2022-08-03T15:11:01.251Z,76.68
2022-08-03T15:13:33.131Z,76.89
2022-08-03T15:16:03.744Z,77.42
2022-08-03T15:18:31.986Z,77.61
2022-08-03T15:21:01.209Z,77.55
2022-08-03T15:23:29.627Z,77.70
2022-08-03T15:26:30.292Z,77.55
2022-08-03T15:28:58.298Z,77.45
2022-08-03T15:31:27.643Z,77.35
2022-08-03T15:33:56.045Z,77.58
2022-08-03T15:36:24.480Z,77.15
2022-08-03T15:38:53.952Z,77.35
2022-08-03T15:41:22.357Z,76.93
2022-08-03T15:43:53.772Z,76.61
2022-08-03T15:46:32.946Z,75.27
2022-08-03T15:49:01.343Z,75.54
2022-08-03T15:51:31.865Z,75.66
2022-08-03T15:54:05.813Z,75.19
2022-08-03T15:56:38.650Z,74.21
2022-08-03T15:59:12.324Z,73.79
2022-08-03T16:01:42.534Z,73.43
2022-08-03T16:11:39.794Z,71.32
2022-08-03T16:14:30.759Z,71.07
2022-08-03T16:17:10.182Z,72.11
2022-08-03T16:19:42.194Z,71.89
2022-08-03T16:25:13.865Z,71.60
2022-08-03T16:28:00.245Z,72.24
2022-08-03T16:30:39.558Z,71.92
2022-08-03T16:33:08.112Z,70.62
2022-08-03T16:35:36.575Z,70.44
2022-08-03T16:38:13.190Z,70.35
2022-08-03T16:40:54.301Z,68.00
2022-08-03T16:43:36.083Z,68.72
2022-08-03T16:46:10.653Z,67.97
2022-08-03T16:48:39.620Z,66.70
2022-08-03T16:51:07.960Z,67.38
2022-08-03T16:54:05.286Z,68.58
2022-08-03T16:56:27.592Z,69.58
2022-08-03T16:58:58.129Z,69.70
2022-08-03T17:01:37.639Z,69.85
2022-08-03T17:04:11.880Z,69.93
2022-08-03T17:06:45.172Z,70.24
2022-08-03T17:09:21.839Z,69.87
2022-08-03T17:11:52.105Z,69.71
2022-08-03T17:14:28.553Z,69.04
2022-08-03T17:17:04.124Z,68.38
2022-08-03T17:19:39.017Z,64.91
2022-08-03T17:22:12.078Z,64.92
2022-08-03T17:24:53.819Z,64.83
2022-08-03T17:28:51.234Z,65.25
2022-08-03T17:30:39.480Z,65.71
2022-08-03T17:33:20.243Z,66.10
2022-08-03T17:35:53.642Z,65.61
2022-08-03T17:38:31.856Z,65.11
2022-08-03T17:41:10.637Z,66.28
2022-08-03T17:44:12.761Z,65.86
2022-08-03T17:46:39.283Z,64.62
2022-08-03T17:49:24.954Z,64.83
2022-08-03T17:52:03.076Z,64.98
2022-08-03T17:55:57.042Z,64.26
2022-08-03T17:58:12.976Z,64.72
2022-08-03T18:01:59.545Z,65.12
2022-08-03T18:04:10.915Z,65.03
2022-08-03T18:06:56.238Z,64.99
2022-08-03T18:10:04.168Z,65.48
2022-08-03T18:12:41.341Z,65.38
2022-08-03T18:15:22.322Z,64.02
2022-08-03T18:17:55.479Z,63.87
2022-08-03T18:20:51.125Z,63.04
2022-08-03T18:23:45.669Z,63.18
2022-08-03T18:26:43.448Z,63.11
2022-08-03T18:32:16.931Z,63.52
2022-08-03T18:38:46.827Z,62.48
2022-08-03T18:41:46.968Z,62.34
2022-08-03T18:47:51.755Z,60.88
2022-08-03T18:54:02.364Z,60.89
2022-08-03T18:56:50.487Z,59.35
2022-08-03T19:02:51.629Z,60.45
2022-08-03T19:06:02.293Z,60.21
2022-08-03T19:09:44.887Z,59.78
2022-08-03T19:12:44.549Z,59.31
2022-08-03T19:15:36.018Z,58.61
2022-08-03T19:18:44.163Z,58.84
2022-08-03T19:21:17.576Z,59.28
2022-08-03T19:23:56.242Z,57.57
2022-08-03T19:26:51.292Z,57.84
2022-08-03T19:29:59.560Z,57.07
2022-08-03T19:32:32.172Z,57.75
2022-08-03T19:41:42.815Z,57.32
2022-08-03T19:44:42.909Z,56.70
2022-08-03T19:47:44.772Z,56.51
2022-08-03T19:50:50.995Z,57.62
2022-08-03T19:54:16.718Z,54.86
2022-08-03T20:24:01.646Z,52.73
2022-08-03T20:27:22.436Z,52.74
2022-08-03T20:37:13.302Z,52.69
2022-08-03T20:46:29.640Z,52.66
2022-08-03T20:49:25.214Z,52.65
2022-08-03T20:55:20.162Z,51.67
2022-08-03T20:57:51.817Z,51.97
2022-08-03T21:00:21.962Z,51.73
2022-08-03T21:03:15.893Z,51.25
2022-08-03T21:06:16.330Z,50.84
2022-08-03T21:09:21.392Z,50.49
2022-08-03T21:12:18.005Z,51.11
2022-08-03T21:18:51.709Z,51.09
2022-08-03T21:22:27.898Z,51.79
2022-08-03T21:24:19.072Z,51.13
2022-08-03T21:26:59.436Z,51.26
2022-08-03T21:29:57.483Z,51.41
2022-08-03T21:32:45.004Z,51.23
2022-08-03T21:35:20.944Z,51.41
2022-08-03T21:38:29.657Z,51.57
2022-08-03T21:41:02.577Z,51.48
2022-08-03T21:47:19.293Z,52.56
2022-08-03T21:50:16.741Z,51.75
2022-08-03T21:56:43.762Z,51.19
2022-08-03T21:59:20.036Z,51.37
2022-08-03T22:02:22.665Z,51.37
2022-08-03T22:05:08.298Z,51.24
2022-08-03T22:07:47.574Z,51.43
2022-08-03T22:10:18.338Z,51.18
2022-08-03T22:12:51.418Z,50.80
2022-08-03T22:15:19.925Z,50.69
2022-08-03T22:18:01.359Z,50.61
2022-08-03T22:20:40.575Z,50.55
2022-08-03T22:23:19.574Z,51.08
2022-08-03T22:25:53.147Z,50.95
2022-08-03T22:28:28.560Z,51.40
2022-08-03T22:31:00.476Z,51.28
2022-08-03T22:33:51.130Z,51.01
2022-08-03T22:36:19.738Z,50.47
2022-08-03T22:38:52.726Z,50.63
2022-08-03T22:41:23.478Z,49.66
2022-08-03T22:44:08.067Z,50.13
2022-08-03T22:46:44.335Z,50.64
2022-08-03T22:49:15.576Z,50.67
2022-08-03T22:51:48.618Z,50.12
2022-08-03T22:54:17.937Z,50.44
2022-08-03T22:56:48.271Z,51.00
2022-08-03T22:59:41.042Z,51.19
2022-08-03T23:02:23.270Z,51.16
2022-08-03T23:06:02.023Z,51.37
2022-08-03T23:08:13.106Z,51.69
2022-08-03T23:10:53.378Z,52.13
2022-08-03T23:13:26.657Z,52.44
2022-08-03T23:16:09.690Z,52.88
2022-08-03T23:18:49.452Z,53.19
2022-08-03T23:22:00.313Z,52.96
2022-08-03T23:24:29.414Z,53.24
2022-08-03T23:27:03.759Z,53.31
2022-08-03T23:29:42.751Z,53.29
2022-08-03T23:32:16.665Z,53.32
2022-08-03T23:35:04.900Z,53.24
2022-08-03T23:38:04.471Z,53.28
2022-08-03T23:40:33.712Z,52.88
2022-08-03T23:46:56.542Z,52.00
2022-08-03T23:49:24.793Z,50.93
2022-08-03T23:52:03.395Z,50.56
2022-08-03T23:55:19.437Z,50.52
2022-08-03T23:58:20.653Z,50.46
